Time;durP1;ratioP1;P1;durP2;ratioP2;P2;SDS_P1;SDS_P2;PMS_P1;PMS_P2;Temp;Humidity;BMP_temperature;BMP_pressure;BME280_temperature;BME280_humidity;BME280_pressure;Samples;Min_cycle;Max_cycle;Signal;HPM_P1;HPM_P2
2021/03/20 00:00:56;;;;;;;27.55;16.25;;;;;;;-3.17;81.97;96860.33;1712443;83;21151;-79
2021/03/20 00:03:23;;;;;;;25.40;14.15;;;;;;;-3.06;81.95;96868.92;1709094;83;21586;-79
2021/03/20 00:05:52;;;;;;;30.25;16.82;;;;;;;-2.97;81.91;96863.59;1711889;83;21150;-79
2021/03/20 00:08:23;;;;;;;37.95;19.12;;;;;;;-2.92;81.85;96865.14;1711961;83;21249;-79
2021/03/20 00:10:51;;;;;;;28.50;15.38;;;;;;;-2.89;82.00;96859.08;1712312;83;21649;-79
2021/03/20 00:13:21;;;;;;;30.92;16.30;;;;;;;-2.84;82.20;96854.62;1718673;83;21251;-79
2021/03/20 00:15:52;;;;;;;30.35;18.87;;;;;;;-2.80;82.15;96862.36;1712014;83;21272;-79
2021/03/20 00:18:20;;;;;;;26.52;17.20;;;;;;;-2.84;81.95;96864.50;1708271;81;21266;-79
2021/03/20 00:20:48;;;;;;;33.78;19.25;;;;;;;-2.85;82.08;96865.49;1710273;82;21140;-79
2021/03/20 00:23:16;;;;;;;30.62;18.52;;;;;;;-2.78;82.05;96863.77;1725128;82;21271;-79
2021/03/20 00:25:44;;;;;;;32.48;18.87;;;;;;;-2.70;81.96;96870.59;1728503;83;21139;-79
2021/03/20 00:28:21;;;;;;;33.15;19.17;;;;;;;-2.67;81.81;96865.05;1737115;81;21257;-79
2021/03/20 00:30:46;;;;;;;28.80;18.30;;;;;;;-2.75;81.61;96865.18;1735712;81;21115;-79
2021/03/20 00:33:13;;;;;;;31.57;17.90;;;;;;;-2.87;81.57;96862.28;1732657;81;21486;-79
2021/03/20 00:35:40;;;;;;;32.60;19.57;;;;;;;-2.98;81.65;96874.45;1726454;81;21264;-79
2021/03/20 00:38:07;;;;;;;35.85;20.72;;;;;;;-3.06;81.83;96869.41;1722684;83;21550;-79
2021/03/20 00:40:35;;;;;;;37.13;20.68;;;;;;;-3.17;82.09;96862.92;1711201;81;21147;-79
2021/03/20 00:43:02;;;;;;;38.25;23.15;;;;;;;-3.24;82.05;96864.64;1716902;81;21130;-79
2021/03/20 00:45:32;;;;;;;34.35;20.40;;;;;;;-3.22;82.02;96868.37;1738376;81;21131;-79
2021/03/20 00:48:10;;;;;;;37.48;20.95;;;;;;;-3.17;81.98;96864.72;1738412;81;21525;-79
2021/03/20 00:50:39;;;;;;;39.03;22.07;;;;;;;-3.16;81.88;96863.73;1749350;81;21158;-79
2021/03/20 00:53:07;;;;;;;33.50;19.82;;;;;;;-3.14;81.84;96866.44;1712598;81;21103;-79
2021/03/20 00:55:34;;;;;;;33.67;19.60;;;;;;;-3.10;81.73;96866.86;1717277;81;21154;-79
2021/03/20 00:58:22;;;;;;;42.00;23.40;;;;;;;-3.12;81.68;96861.86;1735411;81;21617;-79
2021/03/20 01:00:52;;;;;;;43.02;24.20;;;;;;;-3.16;81.73;96862.43;1711427;83;21134;-79
2021/03/20 01:03:20;;;;;;;42.23;23.50;;;;;;;-3.17;81.82;96858.23;1752419;81;21161;-79
2021/03/20 01:05:48;;;;;;;41.65;22.37;;;;;;;-3.12;81.89;96862.36;1743929;81;21166;-79
2021/03/20 01:08:17;;;;;;;37.42;23.20;;;;;;;-3.04;81.95;96860.95;1737880;81;21620;-79
2021/03/20 01:10:45;;;;;;;35.33;20.82;;;;;;;-3.02;81.84;96857.17;1724857;81;21503;-79
2021/03/20 01:13:14;;;;;;;38.23;21.10;;;;;;;-2.96;81.85;96867.78;1709750;83;21122;-79
2021/03/20 01:15:42;;;;;;;39.50;22.10;;;;;;;-2.89;81.84;96868.66;1728273;81;21150;-79
2021/03/20 01:18:11;;;;;;;35.90;20.75;;;;;;;-2.83;81.88;96871.78;1736222;81;21609;-79
2021/03/20 01:20:41;;;;;;;40.00;22.58;;;;;;;-2.75;81.92;96867.77;1714313;81;21091;-79
2021/03/20 01:23:09;;;;;;;42.35;22.98;;;;;;;-2.73;81.90;96861.89;1732014;81;21468;-79
2021/03/20 01:25:37;;;;;;;36.38;22.77;;;;;;;-2.67;81.92;96864.22;1738310;81;21117;-79
2021/03/20 01:28:05;;;;;;;41.10;22.52;;;;;;;-2.61;81.95;96872.07;1741533;81;21175;-79
2021/03/20 01:30:37;;;;;;;35.30;21.25;;;;;;;-2.56;81.89;96865.01;1707651;83;21181;-79
2021/03/20 01:33:05;;;;;;;37.35;22.87;;;;;;;-2.63;81.65;96865.47;1708491;81;21568;-79
2021/03/20 01:35:33;;;;;;;37.98;21.57;;;;;;;-2.71;81.57;96862.01;1728884;81;21140;-79
2021/03/20 01:38:03;;;;;;;35.00;21.95;;;;;;;-2.76;81.61;96858.39;1732517;81;21289;-79
2021/03/20 01:40:36;;;;;;;39.78;22.87;;;;;;;-2.81;81.72;96858.96;1720065;81;21257;-79
2021/03/20 01:43:05;;;;;;;36.05;22.58;;;;;;;-2.84;81.81;96858.51;1711544;82;21268;-79
2021/03/20 01:45:37;;;;;;;36.68;20.32;;;;;;;-2.82;81.89;96862.52;1719856;81;21152;-79
2021/03/20 01:48:16;;;;;;;42.58;23.35;;;;;;;-2.76;81.89;96867.47;1709837;83;21107;-80
2021/03/20 01:50:51;;;;;;;39.38;22.15;;;;;;;-2.71;81.87;96864.61;1731383;82;21140;-79
2021/03/20 01:53:54;;;;;;;40.15;22.50;;;;;;;-2.67;81.81;96865.05;1701058;83;21127;-78
2021/03/20 01:56:26;;;;;;;41.60;21.82;;;;;;;-2.64;81.77;96865.97;1701461;83;21281;-79
2021/03/20 01:58:54;;;;;;;41.18;23.12;;;;;;;-2.64;81.76;96865.97;1733435;81;21149;-79
2021/03/20 02:01:29;;;;;;;42.33;24.55;;;;;;;-2.62;81.75;96868.37;1742943;82;21150;-79
2021/03/20 02:03:59;;;;;;;37.88;23.05;;;;;;;-2.53;81.90;96869.34;1711918;83;21288;-79
2021/03/20 02:06:28;;;;;;;35.43;22.82;;;;;;;-2.47;81.88;96868.58;1704008;83;21171;-79
2021/03/20 02:08:59;;;;;;;42.30;23.65;;;;;;;-2.42;81.85;96874.49;1713749;81;21491;-79
2021/03/20 02:12:13;;;;;;;47.17;24.60;;;;;;;-2.38;81.85;96878.33;1730725;81;21519;-79
2021/03/20 02:15:04;;;;;;;37.15;20.57;;;;;;;-2.34;81.86;96877.45;1705229;83;21289;-79
2021/03/20 02:17:55;;;;;;;43.85;27.15;;;;;;;-2.40;81.83;96873.80;1724378;82;21169;-79
2021/03/20 02:20:30;;;;;;;41.73;25.43;;;;;;;-2.50;82.20;96875.45;1709881;83;21119;-79
2021/03/20 02:23:39;;;;;;;40.50;24.57;;;;;;;-2.55;82.68;96873.10;1728374;82;21313;-79
2021/03/20 02:26:50;;;;;;;36.88;23.27;;;;;;;-2.63;83.05;96879.25;1723027;81;21158;-79
2021/03/20 02:29:48;;;;;;;34.03;22.32;;;;;;;-2.65;82.96;96881.73;1738428;81;21321;-79
2021/03/20 02:32:42;;;;;;;39.18;24.12;;;;;;;-2.63;82.92;96885.73;1728758;81;21126;-79
2021/03/20 02:35:20;;;;;;;28.27;18.00;;;;;;;-2.61;82.95;96889.44;1642655;86;21233;-79
2021/03/20 02:38:05;;;;;;;29.37;17.40;;;;;;;-2.59;82.94;96893.45;1642856;87;21246;-79
2021/03/20 02:40:55;;;;;;;28.02;17.70;;;;;;;-2.60;82.82;96885.84;1691173;81;21212;-79
2021/03/20 02:43:43;;;;;;;32.00;18.07;;;;;;;-2.62;82.74;96888.63;1728602;81;21137;-79
2021/03/20 02:46:48;;;;;;;29.32;19.20;;;;;;;-2.64;82.72;96893.22;1731042;81;21114;-79
2021/03/20 02:49:39;;;;;;;27.02;16.75;;;;;;;-2.64;82.78;96899.70;1737262;81;21143;-79
2021/03/20 02:55:17;;;;;;;19.52;13.62;;;;;;;-2.66;82.56;96891.31;1811430;79;22952;-78
2021/03/20 02:58:07;;;;;;;18.85;12.33;;;;;;;-2.71;82.49;96898.83;1772426;80;21468;-79
2021/03/20 03:00:38;;;;;;;;;;;;;;;-2.69;82.51;96896.84;1770322;80;21622;-80
2021/03/20 03:03:09;;;;;;;16.45;10.82;;;;;;;-2.71;82.38;96897.53;1734283;81;20215;-79
2021/03/20 03:05:45;;;;;;;15.90;10.05;;;;;;;-2.74;82.41;96901.31;1750251;81;21546;-79
2021/03/20 03:08:20;;;;;;;16.12;10.03;;;;;;;-2.77;82.30;96907.37;1694192;84;21085;-79
2021/03/20 03:10:53;;;;;;;16.50;10.60;;;;;;;-2.80;82.28;96908.56;1684017;84;21145;-79
2021/03/20 03:13:28;;;;;;;14.13;9.68;;;;;;;-2.81;82.21;96917.83;1690355;83;21473;-79
2021/03/20 03:16:03;;;;;;;17.23;10.60;;;;;;;-2.81;82.21;96919.13;1702016;83;21163;-79
2021/03/20 03:18:36;;;;;;;14.93;11.00;;;;;;;-2.79;82.23;96920.54;1701213;83;21469;-79
2021/03/20 03:21:08;;;;;;;19.12;12.60;;;;;;;-2.76;82.26;96927.14;1679080;84;21570;-79
2021/03/20 03:23:39;;;;;;;18.67;11.45;;;;;;;-2.80;82.22;96924.13;1706654;83;21113;-79
2021/03/20 03:26:18;;;;;;;17.65;11.50;;;;;;;-2.82;82.23;96927.38;1682987;84;21546;-79
2021/03/20 03:28:52;;;;;;;17.73;11.35;;;;;;;-2.86;82.26;96931.83;1684245;84;21531;-79
2021/03/20 03:31:28;;;;;;;15.78;10.58;;;;;;;-2.90;82.23;96943.08;1700182;83;21540;-79
2021/03/20 03:34:01;;;;;;;15.93;11.55;;;;;;;-2.91;82.24;96944.56;1708733;83;21486;-79
2021/03/20 03:37:02;;;;;;;19.17;15.25;;;;;;;-2.89;82.28;96939.49;1805204;77;28315;-78
2021/03/20 03:39:49;;;;;;;15.75;12.07;;;;;;;-2.87;82.21;96947.89;1767035;80;21248;-79
2021/03/20 03:42:20;;;;;;;15.98;11.10;;;;;;;-2.87;82.18;96957.47;1774697;80;21128;-79
2021/03/20 03:44:50;;;;;;;;;;;;;;;-2.90;82.17;96959.14;1779878;80;21523;-79
2021/03/20 03:47:22;;;;;;;14.80;10.60;;;;;;;-2.93;82.18;96956.92;1776628;80;20111;-79
2021/03/20 03:49:56;;;;;;;14.80;10.03;;;;;;;-2.99;82.13;96956.65;1784269;80;21096;-79
2021/03/20 03:52:23;;;;;;;14.38;10.38;;;;;;;-3.03;82.13;96962.40;1774493;80;21114;-79
2021/03/20 03:54:51;;;;;;;16.27;11.22;;;;;;;-3.07;82.23;96965.86;1795062;79;21108;-79
2021/03/20 03:57:32;;;;;;;16.00;10.75;;;;;;;-3.12;82.21;96969.47;1786413;79;21226;-79
2021/03/20 04:00:27;;;;;;;14.60;10.18;;;;;;;-3.15;82.28;96975.03;1783371;78;21108;-79
2021/03/20 04:03:29;;;;;;;16.37;10.15;;;;;;;-3.16;82.36;96972.63;1766975;80;21139;-79
2021/03/20 04:06:25;;;;;;;16.23;10.23;;;;;;;-3.19;82.30;96977.69;1778142;78;21106;-80
2021/03/20 04:09:24;;;;;;;12.98;9.23;;;;;;;-3.18;82.37;96977.19;1780633;78;21471;-80
2021/03/20 04:12:21;;;;;;;16.42;9.48;;;;;;;-3.19;82.30;96982.07;1771098;80;21316;-80
2021/03/20 04:15:00;;;;;;;14.10;10.18;;;;;;;-3.22;82.19;96992.32;1765750;80;21250;-79
2021/03/20 04:17:57;;;;;;;14.68;10.43;;;;;;;-3.21;82.13;96993.92;1780431;80;21998;-79
2021/03/20 04:20:30;;;;;;;15.40;10.05;;;;;;;-3.16;82.12;96994.67;1796428;78;21135;-79
2021/03/20 04:23:18;;;;;;;14.83;10.05;;;;;;;-3.14;81.98;96996.58;1788144;78;21142;-79
2021/03/20 04:26:08;;;;;;;15.05;9.48;;;;;;;-3.15;81.85;96989.30;1769146;78;21112;-79
2021/03/20 04:28:57;;;;;;;14.53;10.23;;;;;;;-3.14;81.71;96994.79;1771202;78;21310;-79
2021/03/20 04:31:35;;;;;;;14.43;9.70;;;;;;;-3.17;81.50;96995.16;1777992;80;21112;-79
2021/03/20 04:34:41;;;;;;;15.00;10.78;;;;;;;-3.19;81.41;96998.92;1792639;78;21077;-79
2021/03/20 04:37:17;;;;;;;10.25;7.25;;;;;;;-3.19;81.52;97000.22;1806890;78;21126;-79
2021/03/20 04:39:48;;;;;;;15.98;10.58;;;;;;;-3.15;81.56;97006.15;1782357;80;21161;-79
2021/03/20 04:42:27;;;;;;;16.57;11.45;;;;;;;-3.18;81.45;97000.03;1788448;78;21490;-79
2021/03/20 04:44:56;;;;;;;16.85;10.15;;;;;;;-3.14;81.51;97002.56;1781938;80;21226;-79
2021/03/20 04:47:27;;;;;;;14.83;9.50;;;;;;;-3.09;81.52;97006.73;1776434;80;21124;-79
2021/03/20 04:50:05;;;;;;;15.80;10.58;;;;;;;-3.08;81.46;97013.53;1780743;80;21126;-79
2021/03/20 04:52:43;;;;;;;14.78;9.98;;;;;;;-3.14;81.31;97008.25;1797397;79;21156;-79
2021/03/20 04:55:13;;;;;;;14.47;9.98;;;;;;;-3.18;81.36;97015.59;1794199;79;21100;-79
2021/03/20 04:57:54;;;;;;;15.23;10.78;;;;;;;-3.20;81.40;97014.17;1796798;79;21525;-79
2021/03/20 05:00:45;;;;;;;15.20;10.68;;;;;;;-3.21;81.46;97019.05;1774144;80;21117;-79
2021/03/20 05:03:21;;;;;;;17.48;10.85;;;;;;;-3.22;81.51;97024.73;1770416;79;21105;-79
2021/03/20 05:05:59;;;;;;;15.08;10.35;;;;;;;-3.23;81.56;97023.13;1821577;79;21520;-79
2021/03/20 05:08:55;;;;;;;15.88;9.48;;;;;;;-3.27;81.54;97024.45;1791116;80;21247;-80
2021/03/20 05:11:56;;;;;;;18.20;10.93;;;;;;;-3.23;81.60;97029.61;1778280;80;21507;-80
2021/03/20 05:14:40;;;;;;;13.22;9.98;;;;;;;-3.22;81.67;97038.19;1780472;79;21099;-80
2021/03/20 05:17:12;;;;;;;12.43;9.30;;;;;;;-3.24;81.67;97042.23;1776282;79;21123;-80
2021/03/20 05:19:40;;;;;;;13.50;9.55;;;;;;;-3.25;81.67;97052.78;1788991;79;21243;-80
2021/03/20 05:22:08;;;;;;;12.93;9.20;;;;;;;-3.30;81.58;97053.33;1781138;79;21116;-80
2021/03/20 05:24:38;;;;;;;13.22;8.98;;;;;;;-3.34;81.34;97052.09;1770100;79;21119;-80
2021/03/20 05:27:10;;;;;;;13.25;8.98;;;;;;;-3.43;81.13;97060.92;1773899;79;21110;-80
2021/03/20 05:29:38;;;;;;;12.00;7.87;;;;;;;-3.44;81.05;97063.20;1768167;78;21432;-79
2021/03/20 05:32:08;;;;;;;14.20;8.30;;;;;;;-3.44;80.99;97070.98;1737455;80;21127;-80
2021/03/20 05:34:42;;;;;;;11.95;7.37;;;;;;;-3.41;80.97;97070.62;1724674;82;21170;-79
2021/03/20 05:37:20;;;;;;;12.23;6.95;;;;;;;-3.37;80.94;97079.67;1720544;81;21145;-79
2021/03/20 05:39:47;;;;;;;10.18;6.25;;;;;;;-3.37;80.87;97076.59;1717040;82;21134;-79
2021/03/20 05:42:41;;;;;;;12.95;7.53;;;;;;;-3.34;80.82;97079.31;1726324;82;21135;-80
2021/03/20 05:45:43;;;;;;;12.28;7.17;;;;;;;-3.38;80.56;97084.05;1736196;81;21145;-79
2021/03/20 05:48:18;;;;;;;10.88;6.62;;;;;;;-3.42;80.48;97090.55;1733157;81;21150;-79
2021/03/20 05:51:33;;;;;;;9.90;6.37;;;;;;;-3.38;80.48;97097.47;1761439;81;21500;-79
2021/03/20 05:54:27;;;;;;;11.12;6.65;;;;;;;-3.40;80.42;97098.15;1749460;81;21123;-78
2021/03/20 05:57:30;;;;;;;8.00;5.42;;;;;;;-3.40;80.38;97104.63;1730507;82;21494;-78
2021/03/20 06:00:21;;;;;;;10.72;5.60;;;;;;;-3.38;80.41;97109.14;1728061;82;21475;-79
2021/03/20 06:03:36;;;;;;;11.22;6.28;;;;;;;-3.41;80.22;97112.09;1725367;82;21149;-79
2021/03/20 06:06:39;;;;;;;9.38;5.40;;;;;;;-3.41;80.13;97117.28;1740465;81;21579;-80
2021/03/20 06:10:00;;;;;;;8.60;4.72;;;;;;;-3.49;79.44;97118.17;1726088;82;21119;-79
2021/03/20 06:12:57;;;;;;;9.10;5.35;;;;;;;-3.54;79.28;97123.56;1737393;82;21244;-79
2021/03/20 06:15:51;;;;;;;7.20;4.33;;;;;;;-3.59;79.31;97126.20;1727835;82;21133;-79
2021/03/20 06:18:57;;;;;;;10.03;5.50;;;;;;;-3.54;79.38;97128.73;1721343;82;21148;-79
2021/03/20 06:22:03;;;;;;;9.20;5.55;;;;;;;-3.51;79.38;97132.30;1735593;81;21137;-79
2021/03/20 06:25:17;;;;;;;9.98;5.28;;;;;;;-3.46;79.39;97128.67;1732603;82;21100;-79
2021/03/20 06:27:49;;;;;;;8.10;4.97;;;;;;;-3.44;79.40;97130.59;1721230;82;21149;-79
2021/03/20 06:30:40;;;;;;;9.20;5.55;;;;;;;-3.41;79.41;97140.11;1706137;83;21195;-79
2021/03/20 06:33:42;;;;;;;9.48;5.40;;;;;;;-3.36;79.46;97144.78;1729333;82;21143;-79
2021/03/20 06:36:14;;;;;;;8.18;5.22;;;;;;;-3.26;79.59;97149.69;1739490;81;21142;-79
2021/03/20 06:38:50;;;;;;;8.75;5.10;;;;;;;-3.27;79.26;97151.48;1747447;81;21148;-79
2021/03/20 06:41:28;;;;;;;7.95;4.78;;;;;;;-3.21;79.18;97161.16;1728215;82;21523;-79
2021/03/20 06:44:04;;;;;;;7.08;4.55;;;;;;;-3.17;78.71;97162.41;1734178;82;21135;-79
2021/03/20 06:46:35;;;;;;;10.25;5.33;;;;;;;-3.23;78.26;97163.62;1724008;82;21127;-79
2021/03/20 06:49:08;;;;;;;9.10;4.55;;;;;;;-3.23;77.79;97166.21;1729655;81;21502;-79
2021/03/20 06:51:47;;;;;;;9.53;5.30;;;;;;;-3.22;77.34;97159.55;1866116;75;22730;-78
2021/03/20 06:54:19;;;;;;;8.58;4.58;;;;;;;-3.25;77.67;97166.36;1821737;78;21127;-78
2021/03/20 06:56:49;;;;;;;12.03;5.12;;;;;;;-3.06;77.90;97167.16;1829603;78;21414;-77
2021/03/20 06:59:18;;;;;;;8.45;5.55;;;;;;;-3.03;77.31;97166.79;1822383;78;21485;-77
2021/03/20 07:02:24;;;;;;;10.65;5.92;;;;;;;-2.95;77.44;97171.59;1821158;78;21613;-77
2021/03/20 07:05:26;;;;;;;7.55;4.25;;;;;;;-3.12;76.73;97174.83;1829415;78;21577;-79
2021/03/20 07:08:01;;;;;;;10.43;4.87;;;;;;;-3.34;76.46;97166.14;1825060;78;21508;-79
2021/03/20 07:10:37;;;;;;;8.45;4.42;;;;;;;-3.48;76.18;97181.19;1828266;78;21129;-79
2021/03/20 07:13:21;;;;;;;9.98;4.67;;;;;;;-3.45;76.26;97181.63;1826299;78;21095;-79
2021/03/20 07:16:11;;;;;;;10.53;4.92;;;;;;;-3.30;76.55;97178.56;1803352;78;21068;-79
2021/03/20 07:18:57;;;;;;;13.50;6.93;;;;;;;-3.20;76.04;97183.51;1830784;78;21089;-79
2021/03/20 07:21:30;;;;;;;9.18;5.80;;;;;;;-3.10;76.24;97188.41;1805149;78;21503;-79
2021/03/20 07:24:06;;;;;;;8.48;5.55;;;;;;;-2.84;76.58;97190.58;1798230;78;21446;-79
2021/03/20 07:26:56;;;;;;;6.67;4.10;;;;;;;-2.69;76.06;97201.75;1795073;78;21150;-79
2021/03/20 07:29:57;;;;;;;8.48;4.42;;;;;;;-2.62;74.36;97202.66;1809145;78;21113;-80
2021/03/20 07:32:33;;;;;;;7.00;3.45;;;;;;;-2.64;74.63;97202.04;1824977;78;21476;-79
2021/03/20 07:35:17;;;;;;;11.35;4.80;;;;;;;-2.65;71.80;97206.11;1807711;78;21107;-79
2021/03/20 07:37:46;;;;;;;8.63;4.67;;;;;;;-2.65;73.22;97215.20;1809730;78;21130;-79
2021/03/20 07:40:27;;;;;;;8.28;4.62;;;;;;;-2.39;73.51;97207.75;1823842;78;21086;-79
2021/03/20 07:43:18;;;;;;;7.55;4.40;;;;;;;-2.34;72.89;97214.98;1819047;78;21114;-79
2021/03/20 07:45:50;;;;;;;10.85;6.00;;;;;;;-2.26;72.65;97218.75;1808514;78;21470;-79
2021/03/20 07:48:28;;;;;;;8.85;4.85;;;;;;;-2.46;71.76;97210.73;1806732;78;21122;-79
2021/03/20 07:51:04;;;;;;;9.70;5.00;;;;;;;-2.61;72.24;97224.22;1808847;78;21119;-79
2021/03/20 07:53:40;;;;;;;7.40;4.75;;;;;;;-2.49;72.84;97228.78;1817243;78;21107;-79
2021/03/20 07:56:36;;;;;;;9.20;4.45;;;;;;;-2.41;71.60;97230.46;1812213;78;21439;-80
2021/03/20 07:59:14;;;;;;;5.72;3.95;;;;;;;-2.54;71.01;97232.39;1818150;76;21122;-79
2021/03/20 08:01:42;;;;;;;7.42;4.65;;;;;;;-2.27;70.98;97240.52;1805664;78;21499;-79
2021/03/20 08:04:11;;;;;;;9.73;5.65;;;;;;;-2.27;70.98;97240.52;1765041;80;21111;-79
2021/03/20 08:06:49;;;;;;;7.87;3.80;;;;;;;-1.85;72.15;97238.00;1824505;78;21460;-79
2021/03/20 08:09:24;;;;;;;8.95;4.72;;;;;;;-1.74;69.68;97242.41;1822601;78;21466;-79
2021/03/20 08:12:06;;;;;;;8.18;4.40;;;;;;;-1.92;69.62;97244.94;1816515;78;21098;-79
2021/03/20 08:14:45;;;;;;;9.03;5.10;;;;;;;-1.80;69.95;97235.67;1824383;78;21102;-79
2021/03/20 08:17:19;;;;;;;7.42;4.60;;;;;;;-1.87;70.04;97237.88;1820592;78;21113;-79
2021/03/20 08:19:47;;;;;;;11.20;6.00;;;;;;;-1.65;70.73;97249.11;1826898;78;21158;-79
2021/03/20 08:22:41;;;;;;;9.03;5.80;;;;;;;-1.81;69.06;97241.05;1826498;78;21145;-79
2021/03/20 08:25:26;;;;;;;8.60;4.50;;;;;;;-2.15;69.12;97244.27;1791360;78;21102;-80
2021/03/20 08:28:47;;;;;;;8.35;5.03;;;;;;;-2.59;67.52;97239.92;1821611;78;21252;-79
2021/03/20 08:31:53;;;;;;;9.65;5.90;;;;;;;-2.68;69.05;97244.88;1828454;78;21322;-79
2021/03/20 08:35:08;;;;;;;10.45;5.65;;;;;;;-2.19;69.82;97246.92;1823712;78;21477;-79
2021/03/20 08:38:04;;;;;;;10.58;5.97;;;;;;;-1.85;69.19;97246.29;1813268;77;21825;-78
2021/03/20 08:41:01;;;;;;;10.55;5.53;;;;;;;-0.35;70.09;97250.76;1812095;78;21123;-79
2021/03/20 08:44:09;;;;;;;14.20;5.45;;;;;;;-0.35;70.09;97250.76;1803845;78;21107;-79
2021/03/20 08:46:58;;;;;;;9.60;5.37;;;;;;;-0.36;64.67;97247.35;1804616;78;21499;-79
2021/03/20 08:49:50;;;;;;;9.80;4.67;;;;;;;-1.42;64.59;97243.70;1812401;78;21164;-79
2021/03/20 08:52:41;;;;;;;10.32;5.60;;;;;;;-1.29;65.16;97270.63;1810337;78;21121;-79
2021/03/20 08:55:32;;;;;;;11.55;5.65;;;;;;;-0.39;67.24;97268.58;1819436;78;21244;-79
2021/03/20 08:58:44;;;;;;;11.15;6.10;;;;;;;-0.04;62.18;97269.33;1879173;75;22916;-78
2021/03/20 09:01:51;;;;;;;9.30;4.72;;;;;;;-0.18;63.81;97275.48;1818341;77;21154;-79
2021/03/20 09:04:23;;;;;;;9.05;4.95;;;;;;;0.26;62.59;97278.16;1836302;76;21092;-79
2021/03/20 09:07:07;;;;;;;6.72;3.92;;;;;;;0.15;62.77;97266.52;1826902;77;21087;-79
2021/03/20 09:09:42;;;;;;;8.55;4.80;;;;;;;1.05;62.09;97272.25;1838063;77;21091;-80
2021/03/20 09:12:43;;;;;;;6.83;4.17;;;;;;;1.82;62.29;97271.50;1856136;76;21268;-79
2021/03/20 09:15:18;;;;;;;7.03;3.83;;;;;;;2.46;61.63;97275.06;1850196;77;21091;-79
2021/03/20 09:17:46;;;;;;;7.03;4.17;;;;;;;1.94;57.35;97282.13;1845106;76;21086;-79
2021/03/20 09:20:42;;;;;;;10.82;4.42;;;;;;;1.60;57.94;97279.33;1845528;76;21091;-79
2021/03/20 09:23:34;;;;;;;9.40;5.17;;;;;;;1.67;58.91;97279.59;1825705;77;21609;-80
2021/03/20 09:26:06;;;;;;;8.18;4.67;;;;;;;1.61;57.87;97286.95;1823217;77;21510;-80
2021/03/20 09:28:52;;;;;;;7.20;4.15;;;;;;;2.06;59.75;97285.71;1770025;80;21154;-80
2021/03/20 09:31:35;;;;;;;9.40;4.80;;;;;;;2.66;54.89;97280.46;1768880;80;21131;-79
2021/03/20 09:34:34;;;;;;;7.47;4.17;;;;;;;1.48;53.91;97293.52;1765562;80;21226;-79
2021/03/20 09:37:26;;;;;;;8.65;4.40;;;;;;;0.94;54.44;97299.75;1787277;79;21118;-79
2021/03/20 09:39:57;;;;;;;8.68;4.12;;;;;;;1.57;56.17;97290.19;1766816;80;21447;-79
2021/03/20 09:42:30;;;;;;;;;;;;;;;1.82;55.66;97294.23;1790557;79;21122;-79
2021/03/20 09:45:15;;;;;;;9.53;4.78;;;;;;;2.41;56.19;97291.41;1774066;80;20127;-79
2021/03/20 09:47:48;;;;;;;10.48;5.08;;;;;;;2.41;55.06;97287.48;1767557;80;21115;-78
2021/03/20 09:50:29;;;;;;;10.85;5.10;;;;;;;2.80;56.76;97295.58;1779586;80;21142;-79
2021/03/20 09:53:16;;;;;;;10.50;5.50;;;;;;;3.64;57.40;97296.11;1771448;80;21308;-79
2021/03/20 09:55:51;;;;;;;9.83;5.22;;;;;;;3.91;54.49;97300.06;1769209;80;21254;-79
2021/03/20 09:58:27;;;;;;;9.58;5.42;;;;;;;3.99;54.19;97283.23;1792914;79;21455;-78
2021/03/20 10:00:59;;;;;;;8.98;5.03;;;;;;;4.05;55.01;97300.20;1794215;79;21134;-78
2021/03/20 10:03:50;;;;;;;8.83;4.83;;;;;;;4.15;54.71;97300.50;1797576;78;21104;-78
2021/03/20 10:06:38;;;;;;;9.08;4.50;;;;;;;3.77;52.93;97303.84;1789646;79;21103;-79
2021/03/20 10:09:16;;;;;;;9.90;5.05;;;;;;;3.70;53.72;97305.23;1789954;79;21095;-79
2021/03/20 10:12:02;;;;;;;8.30;4.00;;;;;;;4.00;54.05;97297.45;1774588;80;21139;-79
2021/03/20 10:14:33;;;;;;;8.03;3.58;;;;;;;4.26;54.24;97301.59;1793295;79;21305;-79
2021/03/20 10:17:21;;;;;;;8.33;4.15;;;;;;;4.87;54.02;97303.70;1801909;79;21107;-79
2021/03/20 10:19:57;;;;;;;9.23;4.25;;;;;;;5.12;53.66;97312.22;1801012;79;21114;-79
2021/03/20 10:22:32;;;;;;;7.72;4.10;;;;;;;4.58;49.35;97304.80;1788494;79;21107;-79
2021/03/20 10:25:01;;;;;;;6.78;4.20;;;;;;;3.53;48.12;97310.75;1795026;79;21286;-79
2021/03/20 10:27:43;;;;;;;8.80;4.15;;;;;;;2.79;49.99;97316.23;1791962;79;21111;-79
2021/03/20 10:30:23;;;;;;;9.43;4.70;;;;;;;2.89;51.12;97314.47;1782219;79;21148;-79
2021/03/20 10:33:13;;;;;;;8.70;4.00;;;;;;;2.91;50.36;97313.74;1778653;80;21143;-79
2021/03/20 10:35:41;;;;;;;11.40;5.42;;;;;;;2.98;50.57;97311.39;1762363;80;21136;-78
2021/03/20 10:38:22;;;;;;;9.53;5.15;;;;;;;2.84;51.01;97307.25;1794020;78;21130;-78
2021/03/20 10:41:08;;;;;;;11.00;5.10;;;;;;;2.83;48.02;97304.85;1819117;78;21222;-79
2021/03/20 10:43:44;;;;;;;10.08;5.35;;;;;;;2.55;49.38;97300.79;1803535;78;21150;-79
2021/03/20 10:46:31;;;;;;;13.98;6.62;;;;;;;2.16;47.31;97300.47;1787906;79;21103;-79
2021/03/20 10:49:21;;;;;;;12.73;5.95;;;;;;;1.29;48.39;97298.27;1794099;79;21096;-79
2021/03/20 10:51:53;;;;;;;11.43;6.12;;;;;;;1.68;51.98;97297.38;1793552;79;21132;-79
2021/03/20 10:54:38;;;;;;;11.78;6.33;;;;;;;2.38;50.94;97300.45;1787202;79;21517;-79
2021/03/20 10:57:15;;;;;;;11.68;5.37;;;;;;;2.17;50.05;97294.73;1763384;80;21110;-79
2021/03/20 10:59:46;;;;;;;9.73;5.65;;;;;;;1.47;49.18;97295.83;1776203;80;21611;-79
2021/03/20 11:02:37;;;;;;;14.18;6.10;;;;;;;1.29;50.80;97295.66;1783405;80;21099;-79
2021/03/20 11:05:25;;;;;;;10.82;5.55;;;;;;;1.07;51.11;97295.84;1783343;79;21459;-79
2021/03/20 11:08:22;;;;;;;11.05;6.03;;;;;;;1.10;51.28;97299.36;1800627;78;21063;-79
2021/03/20 11:10:54;;;;;;;10.38;5.10;;;;;;;1.24;51.65;97300.66;1796730;80;21118;-79
2021/03/20 11:13:39;;;;;;;6.72;3.77;;;;;;;0.96;48.96;97299.05;1785408;80;21082;-80
2021/03/20 11:16:18;;;;;;;9.10;4.50;;;;;;;1.13;50.19;97298.98;1771551;80;21512;-79
2021/03/20 11:18:51;;;;;;;7.97;4.33;;;;;;;1.19;50.40;97296.86;1757370;81;21459;-79
2021/03/20 11:21:35;;;;;;;10.13;4.72;;;;;;;1.63;52.39;97298.00;1782805;79;21107;-79
2021/03/20 11:24:08;;;;;;;8.98;4.37;;;;;;;2.22;52.37;97298.31;1752992;80;21454;-80
2021/03/20 11:26:41;;;;;;;7.80;4.35;;;;;;;2.22;50.62;97293.59;1777359;79;21130;-80
2021/03/20 11:29:16;;;;;;;11.78;4.67;;;;;;;2.07;49.26;97284.70;1773908;79;21105;-80
2021/03/20 11:31:52;;;;;;;9.78;4.40;;;;;;;2.06;51.18;97289.63;1795498;78;21494;-80
2021/03/20 11:34:27;;;;;;;6.65;4.03;;;;;;;2.03;50.12;97292.16;1773862;80;21123;-80
2021/03/20 11:36:57;;;;;;;8.05;4.00;;;;;;;2.18;51.67;97286.67;1783558;78;21122;-80
2021/03/20 11:39:26;;;;;;;7.22;3.55;;;;;;;2.61;52.03;97284.73;1783498;79;21132;-80
2021/03/20 11:44:51;;;;;;;11.08;5.40;;;;;;;2.04;48.26;97285.12;1781051;78;28232;-78
2021/03/20 11:47:29;;;;;;;9.18;4.50;;;;;;;1.70;48.93;97279.71;1796408;79;21085;-78
2021/03/20 11:50:00;;;;;;;10.38;4.55;;;;;;;1.60;49.13;97278.82;1769022;79;21467;-79
2021/03/20 11:52:54;;;;;;;9.73;4.37;;;;;;;1.56;49.31;97282.86;1766563;79;21266;-78
2021/03/20 11:55:38;;;;;;;10.55;4.37;;;;;;;1.74;50.19;97285.62;1732330;80;21267;-80
2021/03/20 11:58:14;;;;;;;8.25;4.50;;;;;;;1.54;48.42;97277.01;1772202;79;21232;-80
2021/03/20 12:00:46;;;;;;;8.10;4.05;;;;;;;1.52;50.24;97279.02;1741979;79;21138;-80
2021/03/20 12:03:37;;;;;;;7.72;4.30;;;;;;;1.52;49.35;97273.80;1785849;79;21226;-80
2021/03/20 12:06:21;;;;;;;8.18;4.42;;;;;;;1.32;48.94;97278.27;1761884;79;21313;-80
2021/03/20 12:08:56;;;;;;;11.97;4.50;;;;;;;1.25;50.26;97271.73;1741860;79;21517;-79
2021/03/20 12:11:46;;;;;;;10.38;4.92;;;;;;;1.15;50.26;97273.46;1750122;79;21147;-79
2021/03/20 12:14:41;;;;;;;;;;;;;;;1.17;50.92;97271.45;1731251;79;21115;-80
2021/03/20 12:17:23;;;;;;;10.85;4.65;;;;;;;1.40;51.46;97264.97;1747787;79;20128;-80
2021/03/20 12:20:27;;;;;;;10.63;5.90;;;;;;;1.42;50.66;97260.38;1755384;79;21147;-80
2021/03/20 12:22:57;;;;;;;11.00;5.62;;;;;;;0.93;48.68;97258.99;1749698;79;21284;-80
2021/03/20 12:25:43;;;;;;;20.55;8.23;;;;;;;0.49;50.16;97259.56;1749395;79;21118;-80
2021/03/20 12:28:37;;;;;;;7.53;4.10;;;;;;;0.39;49.65;97265.65;1753355;79;21253;-80
2021/03/20 12:31:23;;;;;;;9.38;4.17;;;;;;;0.37;51.37;97263.75;1766696;81;21296;-79
2021/03/20 12:34:05;;;;;;;9.30;4.72;;;;;;;0.61;51.39;97260.59;1759164;79;21236;-80
2021/03/20 12:36:48;;;;;;;8.20;3.90;;;;;;;0.77;51.57;97251.56;1757838;79;21285;-79
2021/03/20 12:39:25;;;;;;;9.58;4.58;;;;;;;0.97;50.28;97244.53;1767762;79;21526;-79